createdAt,value
2023-02-17T00:01:22.559Z,8.87
2023-02-17T00:03:50.340Z,7.47
2023-02-17T00:06:19.754Z,6.73
2023-02-17T00:08:47.342Z,5.88
2023-02-17T00:11:15.012Z,6.80
2023-02-17T00:13:42.615Z,6.70
2023-02-17T00:16:11.336Z,7.50
2023-02-17T00:18:38.135Z,7.20
2023-02-17T00:21:16.352Z,7.10
2023-02-17T00:23:43.733Z,6.33
2023-02-17T00:26:11.265Z,7.22
2023-02-17T00:28:38.257Z,7.97
2023-02-17T00:31:20.564Z,8.00
2023-02-17T00:33:48.027Z,9.73
2023-02-17T00:36:18.790Z,10.57
2023-02-17T00:38:48.026Z,14.83
2023-02-17T00:41:15.081Z,13.63
2023-02-17T00:43:41.807Z,14.13
2023-02-17T00:46:08.923Z,15.25
2023-02-17T00:48:35.926Z,13.00
2023-02-17T00:51:02.875Z,20.70
2023-02-17T00:53:29.874Z,12.02
2023-02-17T00:55:56.723Z,10.93
2023-02-17T00:58:24.048Z,10.77
2023-02-17T01:00:50.779Z,10.40
2023-02-17T01:03:19.047Z,6.73
2023-02-17T01:05:47.802Z,8.98
2023-02-17T01:08:15.644Z,10.73
2023-02-17T01:10:44.865Z,10.18
2023-02-17T01:13:12.966Z,11.70
2023-02-17T01:15:45.761Z,11.23
2023-02-17T01:18:12.869Z,11.98
2023-02-17T01:20:40.699Z,11.23
2023-02-17T01:23:09.007Z,11.10
2023-02-17T01:25:44.291Z,11.77
2023-02-17T01:28:21.401Z,9.13
2023-02-17T01:30:49.191Z,10.60
2023-02-17T01:33:16.080Z,8.40
2023-02-17T01:35:42.874Z,13.20
2023-02-17T01:38:12.750Z,9.85
2023-02-17T01:40:47.246Z,11.68
2023-02-17T01:43:17.587Z,11.77
2023-02-17T01:46:05.128Z,7.65
2023-02-17T01:48:37.828Z,10.57
2023-02-17T01:51:09.839Z,14.40
2023-02-17T01:53:43.801Z,9.10
2023-02-17T01:56:11.987Z,10.60
2023-02-17T01:58:42.317Z,12.13
2023-02-17T02:01:09.228Z,13.30
2023-02-17T02:03:38.084Z,12.73
2023-02-17T02:06:15.867Z,10.02
2023-02-17T02:08:58.439Z,10.27
2023-02-17T02:11:25.212Z,7.93
2023-02-17T02:13:52.110Z,10.80
2023-02-17T02:16:37.479Z,11.05
2023-02-17T02:19:06.987Z,15.10
2023-02-17T02:21:52.111Z,17.40
2023-02-17T02:24:28.655Z,10.27
2023-02-17T02:27:19.265Z,12.40
2023-02-17T02:30:14.088Z,12.80
2023-02-17T02:32:47.642Z,10.90
2023-02-17T02:35:23.520Z,10.70
2023-02-17T02:37:53.428Z,22.15
2023-02-17T02:40:24.558Z,18.58
2023-02-17T02:42:51.418Z,21.60
2023-02-17T02:45:19.507Z,16.33
2023-02-17T02:47:49.520Z,16.67
2023-02-17T02:50:53.865Z,17.80
2023-02-17T02:53:45.978Z,13.02
2023-02-17T02:56:24.347Z,19.50
2023-02-17T02:59:04.928Z,15.98
2023-02-17T03:01:46.674Z,16.40
2023-02-17T03:04:31.736Z,23.45
2023-02-17T03:07:07.585Z,14.93
2023-02-17T03:09:34.777Z,15.68
2023-02-17T03:12:01.510Z,13.20
2023-02-17T03:14:31.036Z,16.27
2023-02-17T03:16:58.278Z,14.98
2023-02-17T03:19:25.949Z,18.25
2023-02-17T03:22:22.634Z,13.85
2023-02-17T03:24:49.430Z,11.60
2023-02-17T03:27:16.403Z,16.40
2023-02-17T03:29:43.139Z,14.30
2023-02-17T03:32:10.271Z,17.75
2023-02-17T03:34:37.421Z,16.60
2023-02-17T03:37:04.263Z,13.45
2023-02-17T03:39:31.649Z,18.95
2023-02-17T03:41:58.444Z,15.10
2023-02-17T03:44:25.303Z,16.02
2023-02-17T03:46:52.068Z,14.20
2023-02-17T03:49:18.865Z,14.80
2023-02-17T03:51:45.639Z,18.55
2023-02-17T03:54:12.580Z,16.48
2023-02-17T03:56:39.442Z,11.37
2023-02-17T03:59:06.557Z,12.57
2023-02-17T04:01:33.451Z,14.25
2023-02-17T04:04:00.247Z,13.73
2023-02-17T04:06:26.955Z,14.85
2023-02-17T04:08:53.738Z,11.45
2023-02-17T04:11:20.459Z,8.02
2023-02-17T04:13:47.281Z,10.15
2023-02-17T04:16:14.081Z,8.13
2023-02-17T04:18:40.865Z,8.05
2023-02-17T04:21:07.989Z,14.10
2023-02-17T04:23:38.393Z,14.23
2023-02-17T04:26:07.577Z,9.57
2023-02-17T04:28:35.405Z,8.37
2023-02-17T04:31:02.316Z,10.45
2023-02-17T04:33:29.709Z,11.40
2023-02-17T04:35:59.640Z,11.20
2023-02-17T04:38:31.476Z,8.43
2023-02-17T04:40:59.385Z,7.10
2023-02-17T04:43:27.963Z,7.07
2023-02-17T04:45:55.121Z,7.70
2023-02-17T04:48:22.575Z,9.10
2023-02-17T04:50:49.459Z,9.10
2023-02-17T04:53:16.508Z,6.80
2023-02-17T04:55:43.472Z,6.70
2023-02-17T04:58:10.682Z,7.13
2023-02-17T05:00:37.747Z,9.60
2023-02-17T05:03:04.760Z,10.03
2023-02-17T05:05:31.617Z,8.80
2023-02-17T05:07:58.432Z,13.83
2023-02-17T05:10:25.188Z,8.00
2023-02-17T05:12:52.501Z,6.33
2023-02-17T05:15:19.730Z,10.23
2023-02-17T05:17:46.452Z,13.27
2023-02-17T05:20:13.350Z,18.00
2023-02-17T05:22:40.091Z,5.60
2023-02-17T05:25:07.380Z,10.00
2023-02-17T05:27:34.522Z,5.73
2023-02-17T05:30:01.352Z,6.30
2023-02-17T05:32:28.164Z,4.40
2023-02-17T05:34:54.966Z,8.70
2023-02-17T05:37:21.695Z,9.20
2023-02-17T05:39:48.455Z,12.07
2023-02-17T05:42:15.236Z,7.00
2023-02-17T05:44:41.953Z,10.43
2023-02-17T05:47:08.701Z,8.23
2023-02-17T05:49:35.456Z,16.63
2023-02-17T05:52:02.732Z,8.10
2023-02-17T05:54:29.501Z,11.10
2023-02-17T05:56:56.302Z,5.00
2023-02-17T05:59:23.255Z,7.60
2023-02-17T06:01:50.083Z,11.97
2023-02-17T06:04:16.883Z,12.63
2023-02-17T06:06:43.695Z,7.20
2023-02-17T06:09:10.460Z,10.23
2023-02-17T06:11:37.379Z,10.97
2023-02-17T06:14:04.259Z,14.23
2023-02-17T06:16:31.053Z,9.20
2023-02-17T06:19:00.009Z,13.50
2023-02-17T06:21:26.768Z,7.47
2023-02-17T06:23:53.553Z,12.97
2023-02-17T06:26:20.543Z,9.50
2023-02-17T06:28:47.375Z,17.60
2023-02-17T06:31:14.218Z,20.83
2023-02-17T06:33:41.032Z,25.20
2023-02-17T06:36:08.406Z,23.90
2023-02-17T06:38:35.350Z,18.97
2023-02-17T06:41:02.208Z,15.87
2023-02-17T06:43:28.989Z,34.00
2023-02-17T06:45:55.711Z,29.20
2023-02-17T06:48:22.512Z,24.87
2023-02-17T06:50:49.972Z,28.80
2023-02-17T06:53:16.747Z,31.03
2023-02-17T06:55:46.346Z,27.60
2023-02-17T06:58:13.115Z,29.00
2023-02-17T07:00:39.976Z,37.33
2023-02-17T07:03:06.800Z,39.33
2023-02-17T07:05:37.266Z,43.33
2023-02-17T07:08:04.867Z,36.47
2023-02-17T07:10:32.448Z,26.00
2023-02-17T07:12:59.264Z,22.80
2023-02-17T07:15:26.049Z,12.70
2023-02-17T07:17:52.817Z,12.33
2023-02-17T07:20:19.638Z,12.13
2023-02-17T07:22:46.569Z,9.70
2023-02-17T07:25:13.302Z,10.17
2023-02-17T07:27:40.094Z,20.63
2023-02-17T07:30:07.510Z,8.93
2023-02-17T07:32:35.519Z,12.70
2023-02-17T07:35:02.255Z,8.93
2023-02-17T07:37:28.937Z,12.87
2023-02-17T07:39:57.197Z,9.27
2023-02-17T07:42:24.366Z,10.00
2023-02-17T07:44:51.129Z,13.13
2023-02-17T07:47:17.893Z,13.20
2023-02-17T07:49:44.672Z,13.07
2023-02-17T07:52:11.529Z,15.80
2023-02-17T07:54:38.406Z,15.37
2023-02-17T07:57:05.165Z,15.17
2023-02-17T07:59:31.983Z,21.20
2023-02-17T08:01:58.728Z,15.50
2023-02-17T08:04:25.657Z,17.00
2023-02-17T08:06:52.525Z,19.03
2023-02-17T08:09:37.902Z,16.20
2023-02-17T08:12:23.300Z,13.97
2023-02-17T08:14:50.058Z,15.80
2023-02-17T08:17:16.793Z,16.70
2023-02-17T08:19:48.667Z,18.97
2023-02-17T08:22:17.303Z,11.70
2023-02-17T08:24:44.501Z,11.27
2023-02-17T08:27:11.453Z,9.37
2023-02-17T08:29:38.194Z,8.00
2023-02-17T08:32:05.041Z,8.83
2023-02-17T08:34:34.811Z,8.70
2023-02-17T08:37:06.536Z,6.43
2023-02-17T08:39:34.374Z,7.50
2023-02-17T08:42:02.018Z,7.67
2023-02-17T08:44:28.845Z,6.00
2023-02-17T08:46:55.702Z,5.83
2023-02-17T08:49:25.058Z,6.00
2023-02-17T08:51:52.451Z,6.00
2023-02-17T08:54:19.193Z,2.97
2023-02-17T08:56:46.071Z,5.43
2023-02-17T08:59:13.797Z,6.70
2023-02-17T09:01:42.682Z,4.23
2023-02-17T09:04:13.200Z,4.10
2023-02-17T09:06:51.895Z,5.00
2023-02-17T09:09:22.588Z,5.80
2023-02-17T09:11:49.744Z,10.00
2023-02-17T09:14:16.665Z,5.30
2023-02-17T09:16:43.660Z,4.70
2023-02-17T09:19:10.529Z,4.33
2023-02-17T09:21:37.343Z,5.33
2023-02-17T09:24:04.321Z,3.47
2023-02-17T09:26:31.145Z,4.17
2023-02-17T09:28:58.157Z,5.40
2023-02-17T09:31:27.104Z,3.90
2023-02-17T09:33:55.144Z,4.87
2023-02-17T09:36:28.637Z,4.60
2023-02-17T09:38:56.303Z,5.17
2023-02-17T09:41:22.970Z,3.93
2023-02-17T09:43:51.713Z,2.80
2023-02-17T09:46:18.443Z,3.77
2023-02-17T09:48:47.865Z,4.20
2023-02-17T09:51:23.945Z,4.87
2023-02-17T09:53:56.612Z,3.30
2023-02-17T09:56:33.661Z,2.77
2023-02-17T09:59:07.124Z,3.60
2023-02-17T10:01:35.596Z,2.07
2023-02-17T10:04:06.278Z,2.83
2023-02-17T10:06:41.348Z,4.50
2023-02-17T10:09:26.960Z,4.77
2023-02-17T10:12:09.592Z,3.40
2023-02-17T10:14:59.661Z,2.13
2023-02-17T10:17:34.788Z,2.90
2023-02-17T10:20:09.744Z,5.00
2023-02-17T10:22:36.719Z,2.90
2023-02-17T10:25:17.829Z,3.97
2023-02-17T10:28:10.484Z,2.47
2023-02-17T10:30:43.709Z,18.87
2023-02-17T10:33:35.238Z,3.80
2023-02-17T10:36:23.844Z,6.07
2023-02-17T10:38:53.260Z,4.00
2023-02-17T10:41:26.832Z,7.23
2023-02-17T10:43:54.599Z,3.40
2023-02-17T10:46:28.604Z,3.53
2023-02-17T10:48:57.582Z,8.70
2023-02-17T10:51:29.748Z,3.10
2023-02-17T10:54:25.736Z,2.97
2023-02-17T10:56:55.902Z,4.40
2023-02-17T10:59:38.445Z,3.90
2023-02-17T11:02:31.253Z,4.40
2023-02-17T11:04:59.908Z,2.57
2023-02-17T11:07:41.198Z,4.90
2023-02-17T11:10:33.871Z,3.87
2023-02-17T11:13:03.533Z,3.20
2023-02-17T11:15:35.468Z,5.53
2023-02-17T11:18:11.087Z,4.17
2023-02-17T11:20:38.726Z,3.43
2023-02-17T11:23:21.743Z,5.10
2023-02-17T11:25:58.085Z,3.27
2023-02-17T11:28:26.070Z,3.70
2023-02-17T11:30:59.207Z,1.60
2023-02-17T11:33:32.738Z,4.30
2023-02-17T11:36:00.238Z,4.27
2023-02-17T11:38:37.887Z,4.43
2023-02-17T11:41:07.526Z,3.67
2023-02-17T11:43:36.049Z,2.87
2023-02-17T11:46:18.313Z,4.60
2023-02-17T11:49:04.636Z,2.70
2023-02-17T11:52:03.598Z,2.60
2023-02-17T11:54:39.058Z,4.63
2023-02-17T11:57:14.568Z,3.63
2023-02-17T11:59:55.544Z,4.30
2023-02-17T12:02:36.021Z,4.90
2023-02-17T12:05:33.293Z,4.87
2023-02-17T12:08:12.318Z,2.00
2023-02-17T12:11:06.977Z,2.40
2023-02-17T12:13:48.745Z,5.23
2023-02-17T12:16:27.812Z,1.97
2023-02-17T12:19:16.399Z,3.33
2023-02-17T12:22:16.478Z,1.40
2023-02-17T12:24:56.613Z,2.53
2023-02-17T12:27:45.855Z,1.93
2023-02-17T12:30:46.230Z,2.63
2023-02-17T12:33:31.430Z,2.20
2023-02-17T12:36:03.079Z,1.87
2023-02-17T12:38:36.612Z,1.60
2023-02-17T12:41:22.814Z,6.50
2023-02-17T12:44:01.166Z,2.80
2023-02-17T12:46:44.314Z,6.17
2023-02-17T12:49:16.825Z,2.97
2023-02-17T12:51:49.384Z,3.13
2023-02-17T12:54:23.493Z,2.10
2023-02-17T12:56:57.765Z,2.70
2023-02-17T12:59:50.312Z,2.27
2023-02-17T13:02:22.761Z,2.07
2023-02-17T13:04:55.234Z,3.27
2023-02-17T13:07:43.615Z,3.73
2023-02-17T13:10:34.714Z,2.30
2023-02-17T13:13:14.345Z,2.73
2023-02-17T13:15:46.439Z,1.50
2023-02-17T13:18:31.229Z,4.80
2023-02-17T13:20:59.600Z,3.93
2023-02-17T13:23:41.271Z,1.70
2023-02-17T13:26:21.279Z,2.60
2023-02-17T13:28:50.058Z,2.33
2023-02-17T13:31:18.336Z,3.00
2023-02-17T13:33:56.904Z,1.60
2023-02-17T13:36:32.479Z,5.07
2023-02-17T13:39:04.058Z,1.80
2023-02-17T13:41:45.844Z,1.77
2023-02-17T13:44:31.296Z,1.60
2023-02-17T13:47:06.909Z,2.03
2023-02-17T13:49:35.199Z,2.73
2023-02-17T13:52:29.795Z,2.57
2023-02-17T13:54:58.972Z,1.57
2023-02-17T13:57:33.388Z,3.47
2023-02-17T14:00:11.020Z,4.40
2023-02-17T14:02:45.809Z,1.80
2023-02-17T14:05:25.860Z,1.93
2023-02-17T14:07:57.985Z,5.30
2023-02-17T14:10:26.688Z,2.77
2023-02-17T14:12:54.617Z,1.53
2023-02-17T14:15:27.661Z,2.70
2023-02-17T14:17:55.405Z,3.40
2023-02-17T14:20:34.348Z,4.57
2023-02-17T14:23:12.954Z,2.00
2023-02-17T14:25:46.419Z,3.77
2023-02-17T14:28:24.944Z,2.80
2023-02-17T14:30:53.281Z,2.23
2023-02-17T14:33:24.048Z,4.07
2023-02-17T14:36:11.248Z,3.60
2023-02-17T14:38:41.822Z,1.97
2023-02-17T14:41:09.980Z,2.83
2023-02-17T14:43:36.968Z,5.03
2023-02-17T14:46:04.056Z,5.20
2023-02-17T14:48:30.884Z,2.33
2023-02-17T14:50:58.305Z,7.43
2023-02-17T14:53:26.798Z,1.70
2023-02-17T14:56:07.545Z,1.47
2023-02-17T14:58:34.816Z,1.40
2023-02-17T15:01:01.801Z,2.80
2023-02-17T15:03:28.835Z,2.97
2023-02-17T15:05:55.761Z,1.80
2023-02-17T15:08:30.377Z,4.60
2023-02-17T15:10:57.103Z,2.30
2023-02-17T15:13:23.924Z,2.33
2023-02-17T15:15:50.728Z,1.70
2023-02-17T15:18:19.611Z,3.10
2023-02-17T15:20:51.676Z,3.53
2023-02-17T15:23:21.258Z,2.60
2023-02-17T15:25:49.142Z,1.40
2023-02-17T15:28:18.242Z,2.53
2023-02-17T15:30:51.554Z,1.30
2023-02-17T15:33:18.545Z,2.07
2023-02-17T15:35:46.518Z,1.90
2023-02-17T15:38:14.073Z,1.83
2023-02-17T15:40:42.250Z,1.47
2023-02-17T15:43:16.865Z,2.50
2023-02-17T15:45:43.715Z,2.37
2023-02-17T15:48:24.103Z,2.13
2023-02-17T15:50:51.837Z,2.27
2023-02-17T15:53:19.477Z,2.50
2023-02-17T15:55:47.040Z,8.63
2023-02-17T15:58:17.477Z,1.97
2023-02-17T16:00:49.854Z,2.47
2023-02-17T16:03:17.156Z,1.93
2023-02-17T16:05:44.368Z,2.90
2023-02-17T16:08:11.358Z,1.77
2023-02-17T16:10:40.502Z,2.07
2023-02-17T16:13:08.038Z,3.43
2023-02-17T16:15:37.537Z,3.60
2023-02-17T16:18:04.394Z,2.10
2023-02-17T16:20:34.618Z,2.10
2023-02-17T16:23:02.084Z,3.13
2023-02-17T16:25:29.565Z,2.37
2023-02-17T16:27:56.476Z,1.97
2023-02-17T16:30:42.207Z,6.57
2023-02-17T16:33:10.388Z,2.00
2023-02-17T16:35:37.404Z,2.07
2023-02-17T16:38:12.640Z,1.50
2023-02-17T16:40:47.205Z,2.13
2023-02-17T16:43:30.375Z,2.47
2023-02-17T16:46:02.540Z,5.17
2023-02-17T16:48:33.809Z,3.50
2023-02-17T16:51:00.812Z,3.40
2023-02-17T16:53:27.660Z,4.47
2023-02-17T16:55:55.704Z,2.77
2023-02-17T16:58:24.921Z,2.87
2023-02-17T17:00:54.157Z,1.90
2023-02-17T17:03:22.573Z,2.67
2023-02-17T17:05:51.546Z,3.07
2023-02-17T17:08:20.585Z,3.70
2023-02-17T17:10:49.465Z,3.40
2023-02-17T17:13:16.649Z,7.43
2023-02-17T17:15:45.849Z,1.80
2023-02-17T17:18:21.064Z,1.70
2023-02-17T17:20:48.278Z,2.53
2023-02-17T17:23:15.998Z,2.50
2023-02-17T17:25:48.431Z,5.20
2023-02-17T17:28:18.629Z,4.10
2023-02-17T17:30:46.449Z,2.50
2023-02-17T17:33:13.363Z,4.20
2023-02-17T17:35:40.257Z,3.27
2023-02-17T17:38:07.250Z,3.97
2023-02-17T17:40:51.998Z,3.03
2023-02-17T17:43:20.574Z,4.17
2023-02-17T17:45:51.069Z,2.73
2023-02-17T17:48:18.240Z,2.60
2023-02-17T17:50:45.397Z,3.20
2023-02-17T17:53:12.160Z,1.60
2023-02-17T17:55:38.892Z,2.57
2023-02-17T17:58:05.631Z,2.57
2023-02-17T18:00:32.470Z,2.80
2023-02-17T18:02:59.328Z,2.73
2023-02-17T18:05:26.254Z,3.30
2023-02-17T18:07:53.292Z,2.40
2023-02-17T18:10:20.269Z,3.33
2023-02-17T18:12:48.040Z,1.50
2023-02-17T18:15:17.008Z,2.03
2023-02-17T18:17:43.942Z,3.37
2023-02-17T18:20:12.015Z,2.50
2023-02-17T18:22:39.328Z,1.90
2023-02-17T18:25:07.337Z,1.30
2023-02-17T18:27:47.194Z,1.60
2023-02-17T18:30:17.332Z,4.70
2023-02-17T18:32:44.583Z,1.50
2023-02-17T18:35:11.983Z,2.90
2023-02-17T18:37:40.900Z,2.67
2023-02-17T18:40:12.438Z,1.87
2023-02-17T18:42:45.355Z,3.37
2023-02-17T18:45:12.867Z,1.40
2023-02-17T18:47:39.738Z,1.50
2023-02-17T18:50:07.867Z,1.57
2023-02-17T18:52:36.456Z,1.40
2023-02-17T18:55:03.263Z,4.40
2023-02-17T18:57:30.074Z,1.87
2023-02-17T18:59:56.774Z,1.93
2023-02-17T19:02:23.852Z,3.10
2023-02-17T19:04:52.841Z,3.10
2023-02-17T19:07:20.509Z,2.60
2023-02-17T19:09:47.716Z,1.53
2023-02-17T19:12:14.489Z,1.57
2023-02-17T19:14:41.782Z,1.20
2023-02-17T19:17:10.066Z,2.30
2023-02-17T19:19:40.337Z,4.50
2023-02-17T19:22:09.484Z,1.33
2023-02-17T19:24:37.160Z,2.33
2023-02-17T19:27:04.379Z,2.07
2023-02-17T19:29:31.264Z,1.80
2023-02-17T19:31:59.393Z,1.53
2023-02-17T19:34:27.275Z,2.20
2023-02-17T19:36:54.480Z,1.50
2023-02-17T19:39:21.420Z,2.50
2023-02-17T19:41:48.212Z,2.43
2023-02-17T19:44:15.375Z,5.20
2023-02-17T19:46:42.168Z,5.13
2023-02-17T19:49:08.936Z,2.37
2023-02-17T19:51:35.630Z,3.67
2023-02-17T19:54:02.405Z,2.63
2023-02-17T19:56:31.886Z,2.57
2023-02-17T19:58:59.339Z,2.47
2023-02-17T20:01:31.529Z,2.50
2023-02-17T20:04:01.482Z,4.07
2023-02-17T20:06:41.507Z,3.60
2023-02-17T20:09:11.845Z,4.43
2023-02-17T20:11:38.765Z,1.80
2023-02-17T20:14:05.748Z,2.60
2023-02-17T20:16:32.958Z,3.47
2023-02-17T20:19:01.932Z,2.10
2023-02-17T20:21:31.070Z,2.07
2023-02-17T20:23:58.193Z,3.23
2023-02-17T20:26:31.095Z,3.30
2023-02-17T20:28:58.520Z,3.53
2023-02-17T20:31:26.427Z,4.57
2023-02-17T20:33:53.608Z,6.60
2023-02-17T20:36:22.210Z,4.30
2023-02-17T20:38:50.000Z,2.50
2023-02-17T20:41:21.176Z,2.73
2023-02-17T20:43:48.424Z,3.13
2023-02-17T20:46:22.888Z,2.80
2023-02-17T20:48:50.218Z,2.93
2023-02-17T20:51:17.120Z,2.70
2023-02-17T20:53:44.049Z,3.17
2023-02-17T20:56:19.558Z,2.73
2023-02-17T20:58:47.202Z,4.00
2023-02-17T21:01:14.388Z,2.40
2023-02-17T21:03:41.236Z,4.30
2023-02-17T21:06:27.906Z,2.50
2023-02-17T21:08:59.884Z,3.27
2023-02-17T21:11:26.738Z,3.00
2023-02-17T21:13:54.205Z,6.33
2023-02-17T21:16:25.805Z,3.10
2023-02-17T21:18:53.284Z,3.47
2023-02-17T21:21:20.425Z,6.80
2023-02-17T21:23:48.108Z,4.70
2023-02-17T21:26:15.761Z,3.83
2023-02-17T21:28:42.738Z,4.57
2023-02-17T21:31:10.202Z,2.30
2023-02-17T21:33:42.098Z,4.23
2023-02-17T21:36:14.970Z,3.10
2023-02-17T21:38:41.799Z,2.60
2023-02-17T21:41:11.874Z,6.13
2023-02-17T21:43:58.218Z,2.53
2023-02-17T21:46:26.213Z,2.60
2023-02-17T21:48:53.601Z,3.10
2023-02-17T21:51:20.571Z,4.90
2023-02-17T21:53:47.474Z,2.60
2023-02-17T21:56:14.856Z,3.83
2023-02-17T21:58:49.108Z,3.40
2023-02-17T22:01:16.807Z,4.23
2023-02-17T22:03:43.849Z,2.40
2023-02-17T22:06:22.847Z,2.97
2023-02-17T22:08:49.939Z,2.27
2023-02-17T22:11:19.395Z,2.33
2023-02-17T22:13:46.435Z,3.00
2023-02-17T22:16:13.603Z,2.43
2023-02-17T22:18:40.572Z,3.43
2023-02-17T22:21:10.158Z,3.63
2023-02-17T22:23:37.545Z,2.40
2023-02-17T22:26:10.405Z,2.90
2023-02-17T22:28:37.538Z,2.70
2023-02-17T22:31:05.132Z,1.97
2023-02-17T22:33:32.583Z,2.00
2023-02-17T22:36:01.733Z,1.70
2023-02-17T22:38:28.909Z,4.00
2023-02-17T22:40:56.244Z,2.77
2023-02-17T22:43:23.438Z,2.20
2023-02-17T22:46:00.907Z,2.47
2023-02-17T22:48:28.939Z,1.43
2023-02-17T22:50:55.906Z,2.60
2023-02-17T22:53:22.705Z,2.03
2023-02-17T22:55:57.091Z,1.40
2023-02-17T22:58:25.796Z,3.07
2023-02-17T23:01:02.132Z,2.57
2023-02-17T23:03:28.931Z,2.60
2023-02-17T23:06:00.724Z,1.70
2023-02-17T23:08:27.496Z,4.53
2023-02-17T23:10:54.265Z,1.40
2023-02-17T23:13:21.082Z,2.20
2023-02-17T23:15:47.801Z,1.57
2023-02-17T23:18:17.440Z,3.03
2023-02-17T23:20:47.396Z,2.23
2023-02-17T23:23:15.093Z,1.83
2023-02-17T23:25:45.456Z,5.70
2023-02-17T23:28:12.720Z,1.40
2023-02-17T23:30:41.888Z,1.30
2023-02-17T23:33:09.918Z,2.93
2023-02-17T23:35:41.332Z,2.50
2023-02-17T23:38:08.536Z,1.40
2023-02-17T23:40:39.552Z,1.20
2023-02-17T23:43:06.339Z,2.97
2023-02-17T23:45:33.921Z,1.67
2023-02-17T23:48:00.846Z,1.20
2023-02-17T23:50:27.988Z,1.27
2023-02-17T23:52:54.715Z,1.30
2023-02-17T23:55:21.756Z,2.60
2023-02-17T23:57:48.536Z,1.27
